createdAt,value
2019-02-05T00:00:44.170Z,62.10
2019-02-05T00:03:15.856Z,61.20
2019-02-05T00:05:45.228Z,60.80
2019-02-05T00:08:14.020Z,64.10
2019-02-05T00:10:42.874Z,62.30
2019-02-05T00:13:12.600Z,60.90
2019-02-05T00:15:41.447Z,61.60
2019-02-05T00:18:10.271Z,61.50
2019-02-05T00:20:39.588Z,60.80
2019-02-05T00:23:08.323Z,60.30
2019-02-05T00:25:37.077Z,59.60
2019-02-05T00:28:06.309Z,59.00
2019-02-05T00:30:35.937Z,60.30
2019-02-05T00:33:05.279Z,60.60
2019-02-05T00:35:34.111Z,59.10
2019-02-05T00:38:03.380Z,58.80
2019-02-05T00:40:32.384Z,59.40
2019-02-05T00:43:01.168Z,60.40
2019-02-05T00:45:30.367Z,59.40
2019-02-05T00:47:59.229Z,60.30
2019-02-05T00:50:28.244Z,60.50
2019-02-05T00:52:57.087Z,61.20
2019-02-05T00:55:25.951Z,61.10
2019-02-05T00:57:54.796Z,63.50
2019-02-05T01:00:26.078Z,63.20
2019-02-05T01:02:55.329Z,63.00
2019-02-05T01:05:24.219Z,68.10
2019-02-05T01:07:53.394Z,67.70
2019-02-05T01:10:23.327Z,68.00
2019-02-05T01:12:52.315Z,68.70
2019-02-05T01:15:22.249Z,68.70
2019-02-05T01:17:51.481Z,69.20
2019-02-05T01:20:20.520Z,69.90
2019-02-05T01:22:49.842Z,70.00
2019-02-05T01:25:19.043Z,70.50
2019-02-05T01:27:48.447Z,69.60
2019-02-05T01:30:19.971Z,69.90
2019-02-05T01:32:49.340Z,71.10
2019-02-05T01:35:18.191Z,68.90
2019-02-05T01:37:46.956Z,66.60
2019-02-05T01:40:17.534Z,65.10
2019-02-05T01:42:46.510Z,63.80
2019-02-05T01:45:19.429Z,61.20
2019-02-05T01:47:48.354Z,60.50
2019-02-05T01:50:22.787Z,59.80
2019-02-05T01:52:51.842Z,61.10
2019-02-05T01:55:21.176Z,61.70
2019-02-05T01:57:50.042Z,59.90
2019-02-05T02:00:23.970Z,61.40
2019-02-05T02:02:52.950Z,62.20
2019-02-05T02:05:22.247Z,63.50
2019-02-05T02:07:51.192Z,61.70
2019-02-05T02:10:22.311Z,64.70
2019-02-05T02:12:52.053Z,66.90
2019-02-05T02:15:21.058Z,66.80
2019-02-05T02:17:50.307Z,69.20
2019-02-05T02:20:19.621Z,73.50
2019-02-05T02:22:48.935Z,73.70
2019-02-05T02:25:18.232Z,73.30
2019-02-05T02:27:47.815Z,73.00
2019-02-05T02:30:19.291Z,74.40
2019-02-05T02:32:48.114Z,74.50
2019-02-05T02:35:16.931Z,75.10
2019-02-05T02:37:45.898Z,76.30
2019-02-05T02:40:15.176Z,77.30
2019-02-05T02:42:44.044Z,77.10
2019-02-05T02:45:13.193Z,77.40
2019-02-05T02:47:42.235Z,77.90
2019-02-05T02:50:12.858Z,78.50
2019-02-05T02:52:41.781Z,78.60
2019-02-05T02:55:10.870Z,79.40
2019-02-05T02:57:40.023Z,79.00
2019-02-05T03:00:11.737Z,78.70
2019-02-05T03:02:40.832Z,79.20
2019-02-05T03:05:11.960Z,80.90
2019-02-05T03:07:40.928Z,81.30
2019-02-05T03:10:13.876Z,81.20
2019-02-05T03:12:42.757Z,80.90
2019-02-05T03:15:11.777Z,80.40
2019-02-05T03:17:40.940Z,81.00
2019-02-05T03:20:10.378Z,80.90
2019-02-05T03:22:39.557Z,80.90
2019-02-05T03:25:09.844Z,81.80
2019-02-05T03:27:38.900Z,82.50
2019-02-05T03:30:10.628Z,82.40
2019-02-05T03:32:39.513Z,82.00
2019-02-05T03:35:08.538Z,82.10
2019-02-05T03:37:37.898Z,82.10
2019-02-05T03:40:39.040Z,82.00
2019-02-05T03:43:08.196Z,82.10
2019-02-05T03:45:37.287Z,83.10
2019-02-05T03:48:06.669Z,83.30
2019-02-05T03:50:40.352Z,82.90
2019-02-05T03:53:10.654Z,82.60
2019-02-05T03:55:58.670Z,82.30
2019-02-05T03:58:50.867Z,82.30
2019-02-05T04:01:58.258Z,82.50
2019-02-05T04:05:00.726Z,83.80
2019-02-05T04:07:45.305Z,84.00
2019-02-05T04:10:51.032Z,84.10
2019-02-05T04:14:05.900Z,84.80
2019-02-05T04:17:14.992Z,84.70
2019-02-05T04:20:03.154Z,84.50
2019-02-05T04:23:09.195Z,84.20
2019-02-05T04:25:55.102Z,83.60
2019-02-05T04:28:47.187Z,84.10
2019-02-05T04:31:36.476Z,84.90
2019-02-05T04:34:43.513Z,85.00
2019-02-05T04:37:38.728Z,84.80
2019-02-05T04:40:35.978Z,85.00
2019-02-05T04:43:26.638Z,86.90
2019-02-05T04:46:39.981Z,87.40
2019-02-05T04:49:21.546Z,87.50
2019-02-05T04:52:23.238Z,88.30
2019-02-05T04:55:02.411Z,87.30
2019-02-05T04:57:41.924Z,87.20
2019-02-05T05:00:32.263Z,87.20
2019-02-05T05:03:54.705Z,88.80
2019-02-05T05:06:47.381Z,89.50
2019-02-05T05:09:30.740Z,88.20
2019-02-05T05:11:59.674Z,89.30
2019-02-05T05:14:28.582Z,90.80
2019-02-05T05:16:57.472Z,91.50
2019-02-05T05:19:26.445Z,90.70
2019-02-05T05:21:55.388Z,90.30
2019-02-05T05:24:24.325Z,90.20
2019-02-05T05:26:53.311Z,90.00
2019-02-05T05:29:22.374Z,89.40
2019-02-05T05:31:52.877Z,88.60
2019-02-05T05:34:22.117Z,89.10
2019-02-05T05:36:50.121Z,89.70
2019-02-05T05:39:19.608Z,89.40
2019-02-05T05:41:48.440Z,89.60
2019-02-05T05:44:17.257Z,89.30
2019-02-05T05:46:46.632Z,88.60
2019-02-05T05:49:15.849Z,88.80
2019-02-05T05:51:44.959Z,89.30
2019-02-05T05:54:13.963Z,88.60
2019-02-05T05:56:42.794Z,87.90
2019-02-05T05:59:11.708Z,87.50
2019-02-05T06:01:40.780Z,86.40
2019-02-05T06:04:10.042Z,86.50
2019-02-05T06:06:39.434Z,86.40
2019-02-05T06:09:09.306Z,86.80
2019-02-05T06:11:38.229Z,89.00
2019-02-05T06:14:07.456Z,90.00
2019-02-05T06:16:36.508Z,89.40
2019-02-05T06:19:05.484Z,89.40
2019-02-05T06:21:34.318Z,89.30
2019-02-05T06:24:03.904Z,88.70
2019-02-05T06:26:32.844Z,87.90
2019-02-05T06:29:03.174Z,87.40
2019-02-05T06:31:33.386Z,87.20
2019-02-05T06:34:02.286Z,87.50
2019-02-05T06:36:31.163Z,86.60
2019-02-05T06:39:00.510Z,86.70
2019-02-05T06:41:29.526Z,87.40
2019-02-05T06:43:58.437Z,87.40
2019-02-05T06:46:27.280Z,88.60
2019-02-05T06:48:57.565Z,88.00
2019-02-05T06:51:26.407Z,86.70
2019-02-05T06:53:55.259Z,86.40
2019-02-05T06:56:24.427Z,85.00
2019-02-05T06:58:53.175Z,86.00
2019-02-05T07:01:22.036Z,85.70
2019-02-05T07:03:50.883Z,85.80
2019-02-05T07:06:20.219Z,88.30
2019-02-05T07:08:49.048Z,88.30
2019-02-05T07:11:18.408Z,87.60
2019-02-05T07:13:47.267Z,87.00
2019-02-05T07:16:16.006Z,86.60
2019-02-05T07:18:44.750Z,86.10
2019-02-05T07:21:13.700Z,85.20
2019-02-05T07:23:42.527Z,84.60
2019-02-05T07:26:11.383Z,84.00
2019-02-05T07:28:40.499Z,84.30
2019-02-05T07:31:09.352Z,83.60
2019-02-05T07:33:38.200Z,84.10
2019-02-05T07:36:07.266Z,83.50
2019-02-05T07:38:36.250Z,83.50
2019-02-05T07:41:05.231Z,82.90
2019-02-05T07:43:34.042Z,83.30
2019-02-05T07:46:02.850Z,83.40
2019-02-05T07:48:32.073Z,78.10
2019-02-05T07:51:00.930Z,78.80
2019-02-05T07:53:29.770Z,78.60
2019-02-05T07:55:58.584Z,76.90
2019-02-05T07:58:27.425Z,70.60
2019-02-05T08:00:56.241Z,68.80
2019-02-05T08:03:25.060Z,68.30
2019-02-05T08:05:54.327Z,63.90
2019-02-05T08:08:23.321Z,62.50
2019-02-05T08:10:52.522Z,63.90
2019-02-05T08:13:21.261Z,58.60
2019-02-05T08:15:50.144Z,54.40
2019-02-05T08:18:19.254Z,50.80
2019-02-05T08:20:48.011Z,51.80
2019-02-05T08:23:16.899Z,51.20
2019-02-05T08:25:45.823Z,50.30
2019-02-05T08:28:14.796Z,44.90
2019-02-05T08:30:45.963Z,43.80
2019-02-05T08:33:14.839Z,41.60
2019-02-05T08:35:43.818Z,42.50
2019-02-05T08:38:13.045Z,42.50
2019-02-05T08:40:41.842Z,42.20
2019-02-05T08:43:10.951Z,40.20
2019-02-05T08:45:40.131Z,39.60
2019-02-05T08:48:09.705Z,43.30
2019-02-05T08:50:38.739Z,43.60
2019-02-05T08:53:07.728Z,38.00
2019-02-05T08:55:36.536Z,36.10
2019-02-05T08:58:07.242Z,33.30
2019-02-05T09:00:37.375Z,36.50
2019-02-05T09:03:08.339Z,33.20
2019-02-05T09:05:37.180Z,29.60
2019-02-05T09:08:06.262Z,29.40
2019-02-05T09:10:36.052Z,25.80
2019-02-05T09:13:05.113Z,29.60
2019-02-05T09:15:34.131Z,21.60
2019-02-05T09:18:03.312Z,21.70
2019-02-05T09:20:32.232Z,19.80
2019-02-05T09:23:01.222Z,16.60
2019-02-05T09:25:30.258Z,18.80
2019-02-05T09:27:59.479Z,20.40
2019-02-05T09:30:30.123Z,19.50
2019-02-05T09:33:00.305Z,19.20
2019-02-05T09:35:29.114Z,19.40
2019-02-05T09:37:58.097Z,19.70
2019-02-05T09:40:31.952Z,20.00
2019-02-05T09:43:00.820Z,20.80
2019-02-05T09:45:30.423Z,20.20
2019-02-05T09:47:59.676Z,24.80
2019-02-05T09:50:30.932Z,24.00
2019-02-05T09:52:59.309Z,20.70
2019-02-05T09:55:28.341Z,20.30
2019-02-05T09:57:57.287Z,19.90
2019-02-05T10:00:31.369Z,22.20
2019-02-05T10:03:00.574Z,19.30
2019-02-05T10:05:30.046Z,18.10
2019-02-05T10:07:58.858Z,19.80
2019-02-05T10:10:27.868Z,24.00
2019-02-05T10:12:56.715Z,24.70
2019-02-05T10:15:30.704Z,25.00
2019-02-05T10:18:00.274Z,20.60
2019-02-05T10:20:29.189Z,20.30
2019-02-05T10:23:00.702Z,23.00
2019-02-05T10:25:29.635Z,20.50
2019-02-05T10:27:58.430Z,21.30
2019-02-05T10:30:29.627Z,20.20
2019-02-05T10:32:58.658Z,20.40
2019-02-05T10:35:27.549Z,20.60
2019-02-05T10:37:56.461Z,22.30
2019-02-05T10:40:26.019Z,19.90
2019-02-05T10:42:54.970Z,22.30
2019-02-05T10:45:24.427Z,27.40
2019-02-05T10:47:53.356Z,24.50
2019-02-05T10:50:22.817Z,22.70
2019-02-05T10:52:51.722Z,23.10
2019-02-05T10:55:20.859Z,23.90
2019-02-05T10:57:50.251Z,22.80
2019-02-05T11:00:21.143Z,24.50
2019-02-05T11:02:50.165Z,24.80
2019-02-05T11:05:23.715Z,23.60
2019-02-05T11:07:52.579Z,25.30
2019-02-05T11:10:21.487Z,25.20
2019-02-05T11:12:50.296Z,27.80
2019-02-05T11:15:21.680Z,26.70
2019-02-05T11:17:50.583Z,24.80
2019-02-05T11:20:21.496Z,26.00
2019-02-05T11:22:50.698Z,24.90
2019-02-05T11:25:19.821Z,26.40
2019-02-05T11:27:48.928Z,25.30
2019-02-05T11:30:20.755Z,26.00
2019-02-05T11:32:52.767Z,25.60
2019-02-05T11:35:20.447Z,28.00
2019-02-05T11:37:49.610Z,29.60
2019-02-05T11:40:21.471Z,28.40
2019-02-05T11:42:50.375Z,27.20
2019-02-05T11:45:19.426Z,28.50
2019-02-05T11:47:48.771Z,29.60
2019-02-05T11:50:18.452Z,29.80
2019-02-05T11:52:47.464Z,29.10
2019-02-05T11:55:18.002Z,29.50
2019-02-05T11:57:46.818Z,28.20
2019-02-05T12:00:31.810Z,28.30
2019-02-05T12:02:51.925Z,29.30
2019-02-05T12:05:20.773Z,28.40
2019-02-05T12:07:49.710Z,29.10
2019-02-05T12:10:19.083Z,30.10
2019-02-05T12:12:47.900Z,32.30
2019-02-05T12:15:17.421Z,31.10
2019-02-05T12:17:46.417Z,31.10
2019-02-05T12:20:15.435Z,31.60
2019-02-05T12:22:44.894Z,33.30
2019-02-05T12:25:15.570Z,33.10
2019-02-05T12:27:44.784Z,30.70
2019-02-05T12:30:20.412Z,34.00
2019-02-05T12:32:49.245Z,34.90
2019-02-05T12:35:18.192Z,33.70
2019-02-05T12:37:47.078Z,34.50
2019-02-05T12:40:16.906Z,35.70
2019-02-05T12:42:46.011Z,34.60
2019-02-05T12:45:17.722Z,33.90
2019-02-05T12:47:46.564Z,34.00
2019-02-05T12:50:18.187Z,34.90
2019-02-05T12:52:47.117Z,34.30
2019-02-05T12:55:16.410Z,35.20
2019-02-05T12:57:45.874Z,34.80
2019-02-05T13:00:21.671Z,37.10
2019-02-05T13:02:50.755Z,36.30
2019-02-05T13:05:19.879Z,36.90
2019-02-05T13:07:48.626Z,38.20
2019-02-05T13:10:20.007Z,38.70
2019-02-05T13:12:48.863Z,40.40
2019-02-05T13:15:18.224Z,38.10
2019-02-05T13:17:47.040Z,38.10
2019-02-05T13:20:19.224Z,37.80
2019-02-05T13:22:48.412Z,38.30
2019-02-05T13:25:19.943Z,37.80
2019-02-05T13:27:48.865Z,38.60
2019-02-05T13:30:20.047Z,39.10
2019-02-05T13:32:49.164Z,40.80
2019-02-05T13:35:18.230Z,42.10
2019-02-05T13:37:47.221Z,41.50
2019-02-05T13:40:18.090Z,41.70
2019-02-05T13:42:47.107Z,41.30
2019-02-05T13:45:17.585Z,45.10
2019-02-05T13:47:46.425Z,47.00
2019-02-05T13:50:18.877Z,47.50
2019-02-05T13:52:48.142Z,46.90
2019-02-05T13:55:19.600Z,51.50
2019-02-05T13:57:48.454Z,48.30
2019-02-05T14:00:25.934Z,47.70
2019-02-05T14:02:54.860Z,47.70
2019-02-05T14:05:23.947Z,46.80
2019-02-05T14:07:52.771Z,50.30
2019-02-05T14:10:23.947Z,50.30
2019-02-05T14:12:52.951Z,49.40
2019-02-05T14:15:23.505Z,49.10
2019-02-05T14:17:52.523Z,50.00
2019-02-05T14:20:22.007Z,52.20
2019-02-05T14:22:51.006Z,53.10
2019-02-05T14:25:19.933Z,52.60
2019-02-05T14:27:49.139Z,52.00
2019-02-05T14:30:24.811Z,51.70
2019-02-05T14:32:53.590Z,52.10
2019-02-05T14:35:22.910Z,52.10
2019-02-05T14:37:51.757Z,53.20
2019-02-05T14:40:20.746Z,53.60
2019-02-05T14:42:49.654Z,53.30
2019-02-05T14:45:18.717Z,53.70
2019-02-05T14:47:47.992Z,54.20
2019-02-05T14:50:20.060Z,55.00
2019-02-05T14:52:48.875Z,56.10
2019-02-05T14:55:17.863Z,56.60
2019-02-05T14:57:47.012Z,60.20
2019-02-05T15:00:22.439Z,62.00
2019-02-05T15:02:51.249Z,63.10
2019-02-05T15:05:20.073Z,62.40
2019-02-05T15:07:49.086Z,63.00
2019-02-05T15:10:18.106Z,59.50
2019-02-05T15:12:49.698Z,60.80
2019-02-05T15:15:18.904Z,61.60
2019-02-05T15:17:48.127Z,63.80
2019-02-05T15:20:28.419Z,63.20
2019-02-05T15:22:57.544Z,65.20
2019-02-05T15:25:28.987Z,65.90
2019-02-05T15:27:57.724Z,66.00
2019-02-05T15:30:29.239Z,66.00
2019-02-05T15:33:17.170Z,68.40
2019-02-05T15:35:51.823Z,67.80
2019-02-05T15:38:20.676Z,66.20
2019-02-05T15:40:50.082Z,66.90
2019-02-05T15:43:18.914Z,70.50
2019-02-05T15:45:50.243Z,71.70
2019-02-05T15:48:19.089Z,70.40
2019-02-05T15:50:48.081Z,70.00
2019-02-05T15:53:18.425Z,70.70
2019-02-05T15:55:47.519Z,72.90
2019-02-05T15:58:16.746Z,72.50
2019-02-05T16:00:45.571Z,72.30
2019-02-05T16:03:14.667Z,73.20
2019-02-05T16:05:43.913Z,72.20
2019-02-05T16:08:13.062Z,73.50
2019-02-05T16:10:42.536Z,73.50
2019-02-05T16:13:11.378Z,71.90
2019-02-05T16:15:40.236Z,71.30
2019-02-05T16:18:09.176Z,73.10
2019-02-05T16:20:38.032Z,73.50
2019-02-05T16:23:07.098Z,73.40
2019-02-05T16:25:36.272Z,74.50
2019-02-05T16:28:05.959Z,76.40
2019-02-05T16:30:35.206Z,76.30
2019-02-05T16:33:04.191Z,77.80
2019-02-05T16:35:33.267Z,77.40
2019-02-05T16:38:02.099Z,77.90
2019-02-05T16:40:31.281Z,77.40
2019-02-05T16:43:00.181Z,77.50
2019-02-05T16:45:29.471Z,78.10
2019-02-05T16:47:58.314Z,76.00
2019-02-05T16:50:29.876Z,76.60
2019-02-05T16:52:58.813Z,75.30
2019-02-05T16:55:28.336Z,75.40
2019-02-05T16:57:57.318Z,76.40
2019-02-05T17:00:31.084Z,76.70
2019-02-05T17:03:00.028Z,74.20
2019-02-05T17:05:30.833Z,74.70
2019-02-05T17:07:59.869Z,76.50
2019-02-05T17:10:29.059Z,78.20
2019-02-05T17:12:58.007Z,77.20
2019-02-05T17:15:26.884Z,76.10
2019-02-05T17:17:56.092Z,76.70
2019-02-05T17:20:26.834Z,75.80
2019-02-05T17:22:55.659Z,76.20
2019-02-05T17:25:25.718Z,77.40
2019-02-05T17:27:55.480Z,76.20
2019-02-05T17:30:27.015Z,75.80
2019-02-05T17:32:57.932Z,76.70
2019-02-05T17:35:26.928Z,75.50
2019-02-05T17:38:01.637Z,73.70
2019-02-05T17:40:30.560Z,74.80
2019-02-05T17:42:59.464Z,75.80
2019-02-05T17:45:30.864Z,75.50
2019-02-05T17:48:01.344Z,75.30
2019-02-05T17:50:30.208Z,76.20
2019-02-05T17:52:59.459Z,77.10
2019-02-05T17:55:28.395Z,77.20
2019-02-05T17:57:57.358Z,76.20
2019-02-05T18:00:30.784Z,76.40
2019-02-05T18:02:59.831Z,76.70
2019-02-05T18:05:28.764Z,78.50
2019-02-05T18:07:57.903Z,77.10
2019-02-05T18:10:27.460Z,76.10
2019-02-05T18:12:56.447Z,75.70
2019-02-05T18:15:27.954Z,77.20
2019-02-05T18:17:56.763Z,75.70
2019-02-05T18:20:25.550Z,76.90
2019-02-05T18:22:54.885Z,78.30
2019-02-05T18:25:23.749Z,77.70
2019-02-05T18:27:52.892Z,77.30
2019-02-05T18:30:29.846Z,76.20
2019-02-05T18:33:05.523Z,75.10
2019-02-05T18:35:29.839Z,75.60
2019-02-05T18:37:58.968Z,76.70
2019-02-05T18:40:28.072Z,77.40
2019-02-05T18:42:57.116Z,77.90
2019-02-05T18:45:26.123Z,78.20
2019-02-05T18:47:55.149Z,78.30
2019-02-05T18:50:26.442Z,78.40
2019-02-05T18:52:55.399Z,78.80
2019-02-05T18:55:25.970Z,78.80
2019-02-05T18:57:55.038Z,78.50
2019-02-05T19:00:29.562Z,78.50
2019-02-05T19:02:58.767Z,79.30
2019-02-05T19:05:29.124Z,79.40
2019-02-05T19:07:57.988Z,79.30
2019-02-05T19:10:27.522Z,79.10
2019-02-05T19:12:56.516Z,80.20
2019-02-05T19:15:36.026Z,80.70
2019-02-05T19:18:07.160Z,81.80
2019-02-05T19:20:36.273Z,81.80
2019-02-05T19:23:07.114Z,82.50
2019-02-05T19:25:53.030Z,82.60
2019-02-05T19:28:27.903Z,84.10
2019-02-05T19:30:59.277Z,85.60
2019-02-05T19:33:28.194Z,86.50
2019-02-05T19:35:57.398Z,87.30
2019-02-05T19:38:26.252Z,88.10
2019-02-05T19:40:57.505Z,87.70
2019-02-05T19:43:25.859Z,87.90
2019-02-05T19:46:12.505Z,88.60
2019-02-05T19:48:57.949Z,89.10
2019-02-05T19:51:27.312Z,89.70
2019-02-05T19:53:56.131Z,90.20
2019-02-05T19:56:25.203Z,90.60
2019-02-05T19:58:54.020Z,90.90
2019-02-05T20:01:23.104Z,91.20
2019-02-05T20:03:51.949Z,91.30
2019-02-05T20:06:21.078Z,92.20
2019-02-05T20:08:49.822Z,92.30
2019-02-05T20:11:18.982Z,92.60
2019-02-05T20:13:47.827Z,92.90
2019-02-05T20:16:16.866Z,93.10
2019-02-05T20:18:45.779Z,93.50
2019-02-05T20:21:14.619Z,94.00
2019-02-05T20:23:46.706Z,94.10
2019-02-05T20:26:15.883Z,94.50
2019-02-05T20:28:44.690Z,94.80
2019-02-05T20:31:13.739Z,94.70
2019-02-05T20:33:49.966Z,94.80
2019-02-05T20:36:14.010Z,94.70
2019-02-05T20:38:42.843Z,94.90
2019-02-05T20:41:11.830Z,92.70
2019-02-05T20:43:41.017Z,92.10
2019-02-05T20:46:09.830Z,92.40
2019-02-05T20:48:38.902Z,90.10
2019-02-05T20:51:07.809Z,89.50
2019-02-05T20:53:36.587Z,90.30
2019-02-05T20:56:05.574Z,90.60
2019-02-05T20:58:34.715Z,88.20
2019-02-05T21:01:04.107Z,85.70
2019-02-05T21:03:32.979Z,86.70
2019-02-05T21:06:01.772Z,84.60
2019-02-05T21:08:30.701Z,83.00
2019-02-05T21:10:59.596Z,81.60
2019-02-05T21:13:28.509Z,82.80
2019-02-05T21:15:57.604Z,81.70
2019-02-05T21:18:26.482Z,81.60
2019-02-05T21:20:55.239Z,82.40
2019-02-05T21:23:23.996Z,81.90
2019-02-05T21:25:53.012Z,81.90
2019-02-05T21:28:21.876Z,81.60
2019-02-05T21:30:51.073Z,81.80
2019-02-05T21:33:20.331Z,82.00
2019-02-05T21:35:49.108Z,81.80
2019-02-05T21:38:18.273Z,82.00
2019-02-05T21:40:47.096Z,81.60
2019-02-05T21:43:16.282Z,82.10
2019-02-05T21:45:45.094Z,82.30
2019-02-05T21:48:13.903Z,83.30
2019-02-05T21:50:43.230Z,82.30
2019-02-05T21:53:12.508Z,82.20
2019-02-05T21:55:41.760Z,81.30
2019-02-05T21:58:12.527Z,81.10
2019-02-05T22:00:41.255Z,80.90
2019-02-05T22:03:10.162Z,80.60
2019-02-05T22:05:39.026Z,80.60
2019-02-05T22:08:08.988Z,80.50
2019-02-05T22:10:37.956Z,81.40
2019-02-05T22:13:07.348Z,82.90
2019-02-05T22:15:36.259Z,82.50
2019-02-05T22:18:05.603Z,82.50
2019-02-05T22:20:34.679Z,83.10
2019-02-05T22:23:03.544Z,84.60
2019-02-05T22:25:32.599Z,83.60
2019-02-05T22:28:02.668Z,83.10
2019-02-05T22:30:32.843Z,82.90
2019-02-05T22:33:02.129Z,82.60
2019-02-05T22:35:31.261Z,83.20
2019-02-05T22:38:00.210Z,82.40
2019-02-05T22:40:29.369Z,83.10
2019-02-05T22:42:58.187Z,83.00
2019-02-05T22:45:30.016Z,82.80
2019-02-05T22:47:58.991Z,82.10
2019-02-05T22:50:29.727Z,82.40
2019-02-05T22:52:59.209Z,82.90
2019-02-05T22:55:28.122Z,82.80
2019-02-05T22:57:57.199Z,82.20
2019-02-05T23:00:47.886Z,82.40
2019-02-05T23:03:25.797Z,82.30
2019-02-05T23:06:13.234Z,83.20
2019-02-05T23:08:42.076Z,83.70
2019-02-05T23:11:38.595Z,84.00
2019-02-05T23:14:07.617Z,84.60
2019-02-05T23:16:36.478Z,84.30
2019-02-05T23:19:05.470Z,85.20
2019-02-05T23:21:34.358Z,84.60
2019-02-05T23:24:03.377Z,85.80
2019-02-05T23:26:32.528Z,86.70
2019-02-05T23:29:01.432Z,87.70
2019-02-05T23:31:30.359Z,88.50
2019-02-05T23:33:59.183Z,89.00
2019-02-05T23:36:28.012Z,89.50
2019-02-05T23:38:57.139Z,89.80
2019-02-05T23:41:26.031Z,90.30
2019-02-05T23:43:54.976Z,90.00
2019-02-05T23:46:23.839Z,91.00
2019-02-05T23:48:52.650Z,91.60
2019-02-05T23:51:21.517Z,92.10
2019-02-05T23:53:50.648Z,91.80
2019-02-05T23:56:25.751Z,92.30
2019-02-05T23:58:50.201Z,92.10
